createdAt,value
2023-03-02T00:03:21.462Z,99.90
2023-03-02T00:07:38.641Z,99.90
2023-03-02T00:11:56.503Z,99.90
2023-03-02T00:16:13.544Z,99.90
2023-03-02T00:20:30.874Z,99.90
2023-03-02T00:24:48.002Z,99.90
2023-03-02T00:29:05.376Z,99.90
2023-03-02T00:33:22.637Z,99.90
2023-03-02T00:37:39.911Z,99.90
2023-03-02T00:41:57.047Z,99.90
2023-03-02T00:46:20.583Z,99.90
2023-03-02T00:50:41.132Z,99.90
2023-03-02T00:54:58.502Z,99.90
2023-03-02T00:59:30.070Z,99.90
2023-03-02T01:03:47.180Z,99.90
2023-03-02T01:08:04.500Z,99.90
2023-03-02T01:12:21.643Z,99.90
2023-03-02T01:16:38.866Z,99.90
2023-03-02T01:21:04.142Z,99.90
2023-03-02T01:25:21.355Z,99.90
2023-03-02T01:29:38.522Z,99.90
2023-03-02T01:33:55.882Z,99.90
2023-03-02T01:38:13.328Z,99.90
2023-03-02T01:42:38.028Z,99.90
2023-03-02T01:46:55.178Z,99.90
2023-03-02T01:51:16.389Z,99.90
2023-03-02T01:55:36.663Z,99.90
2023-03-02T01:59:59.692Z,99.90
2023-03-02T02:04:17.526Z,99.90
2023-03-02T02:08:34.685Z,99.90
2023-03-02T02:12:52.330Z,99.90
2023-03-02T02:17:10.926Z,99.90
2023-03-02T02:21:28.746Z,99.90
2023-03-02T02:25:55.406Z,99.90
2023-03-02T02:30:16.150Z,99.90
2023-03-02T02:34:39.226Z,99.90
2023-03-02T02:38:56.646Z,99.90
2023-03-02T02:43:17.135Z,99.90
2023-03-02T02:47:34.489Z,99.90
2023-03-02T02:51:51.666Z,99.90
2023-03-02T02:56:10.249Z,99.90
2023-03-02T03:00:27.858Z,99.90
2023-03-02T03:04:45.261Z,99.90
2023-03-02T03:09:02.565Z,99.90
2023-03-02T03:13:19.670Z,99.90
2023-03-02T03:17:36.773Z,99.90
2023-03-02T03:21:57.410Z,99.90
2023-03-02T03:26:14.506Z,99.90
2023-03-02T03:30:31.732Z,99.90
2023-03-02T03:34:49.570Z,99.90
2023-03-02T03:39:06.762Z,99.90
2023-03-02T03:43:23.833Z,99.90
2023-03-02T03:47:40.918Z,99.90
2023-03-02T03:51:58.464Z,99.90
2023-03-02T03:56:15.571Z,99.90
2023-03-02T04:00:32.743Z,99.90
2023-03-02T04:04:49.850Z,99.90
2023-03-02T04:09:07.480Z,99.90
2023-03-02T04:13:24.646Z,99.90
2023-03-02T04:17:43.481Z,99.90
2023-03-02T04:22:03.932Z,99.90
2023-03-02T04:26:21.051Z,99.90
2023-03-02T04:30:38.222Z,99.90
2023-03-02T04:34:55.321Z,99.90
2023-03-02T04:39:15.538Z,99.90
2023-03-02T04:43:32.813Z,99.90
2023-03-02T04:47:49.877Z,99.90
2023-03-02T04:52:06.970Z,99.90
2023-03-02T04:56:24.704Z,99.90
2023-03-02T05:00:41.937Z,99.90
2023-03-02T05:04:59.122Z,99.90
2023-03-02T05:09:16.300Z,99.90
2023-03-02T05:13:34.499Z,99.90
2023-03-02T05:17:52.220Z,99.90
2023-03-02T05:22:09.351Z,99.90
2023-03-02T05:26:26.535Z,99.90
2023-03-02T05:30:43.662Z,99.90
2023-03-02T05:35:00.777Z,99.90
2023-03-02T05:39:17.859Z,99.90
2023-03-02T05:43:35.941Z,99.90
2023-03-02T05:47:53.316Z,99.90
2023-03-02T05:52:10.463Z,99.90
2023-03-02T05:56:27.606Z,99.90
2023-03-02T06:00:48.382Z,99.90
2023-03-02T06:05:10.837Z,99.90
2023-03-02T06:09:27.930Z,99.90
2023-03-02T06:13:45.069Z,99.90
2023-03-02T06:18:02.227Z,99.90
2023-03-02T06:22:19.442Z,99.90
2023-03-02T06:26:36.512Z,99.90
2023-03-02T06:30:53.730Z,99.90
2023-03-02T06:35:11.692Z,99.90
2023-03-02T06:39:30.046Z,99.90
2023-03-02T06:43:47.189Z,99.90
2023-03-02T06:48:05.357Z,99.90
2023-03-02T06:52:22.652Z,99.90
2023-03-02T06:56:41.099Z,99.90
2023-03-02T07:00:58.371Z,99.90
2023-03-02T07:05:15.660Z,99.90
2023-03-02T07:09:34.063Z,99.90
2023-03-02T07:13:51.341Z,99.90
2023-03-02T07:18:08.466Z,99.90
2023-03-02T07:22:25.529Z,99.90
2023-03-02T07:26:42.637Z,99.90
2023-03-02T07:30:59.775Z,99.90
2023-03-02T07:35:17.522Z,99.90
2023-03-02T07:39:34.651Z,99.90
2023-03-02T07:43:51.723Z,99.90
2023-03-02T07:48:08.925Z,99.90
2023-03-02T07:52:26.023Z,99.90
2023-03-02T07:56:43.295Z,99.90
2023-03-02T08:01:00.602Z,99.90
2023-03-02T08:05:17.827Z,99.90
2023-03-02T08:09:35.224Z,99.90
2023-03-02T08:13:52.398Z,99.90
2023-03-02T08:18:09.554Z,99.90
2023-03-02T08:22:26.638Z,99.90
2023-03-02T08:26:43.730Z,99.90
2023-03-02T08:31:02.700Z,99.90
2023-03-02T08:35:22.074Z,99.90
2023-03-02T08:39:39.200Z,99.90
2023-03-02T08:43:56.328Z,99.90
2023-03-02T08:48:13.436Z,99.90
2023-03-02T08:52:32.426Z,99.90
2023-03-02T08:56:50.292Z,99.90
2023-03-02T09:01:14.292Z,99.90
2023-03-02T09:05:31.389Z,99.90
2023-03-02T09:09:48.605Z,99.90
2023-03-02T09:14:05.757Z,99.90
2023-03-02T09:18:22.900Z,99.90
2023-03-02T09:22:40.470Z,99.90
2023-03-02T09:26:58.153Z,99.90
2023-03-02T09:31:15.298Z,99.90
2023-03-02T09:35:32.812Z,99.90
2023-03-02T09:39:49.912Z,99.90
2023-03-02T09:44:31.545Z,99.90
2023-03-02T09:49:02.075Z,99.90
2023-03-02T09:53:32.625Z,99.90
2023-03-02T09:57:50.526Z,99.90
2023-03-02T10:02:24.943Z,99.90
2023-03-02T10:06:42.063Z,99.90
2023-03-02T10:11:13.293Z,99.90
2023-03-02T10:15:38.361Z,99.90
2023-03-02T10:20:04.687Z,99.90
2023-03-02T10:24:35.131Z,99.90
2023-03-02T10:29:29.552Z,99.90
2023-03-02T10:33:48.007Z,99.90
2023-03-02T10:38:20.275Z,99.90
2023-03-02T10:42:40.317Z,99.90
2023-03-02T10:46:57.842Z,99.20
2023-03-02T10:51:31.276Z,96.10
2023-03-02T10:55:50.804Z,88.20
2023-03-02T11:00:21.608Z,83.20
2023-03-02T11:04:39.010Z,80.40
2023-03-02T11:09:05.160Z,81.90
2023-03-02T11:13:31.839Z,68.60
2023-03-02T11:18:20.212Z,68.50
2023-03-02T11:22:44.006Z,66.00
2023-03-02T11:27:12.106Z,61.10
2023-03-02T11:31:41.374Z,58.50
2023-03-02T11:36:12.093Z,57.30
2023-03-02T11:40:42.457Z,57.00
2023-03-02T11:45:17.040Z,55.40
2023-03-02T11:49:45.114Z,55.40
2023-03-02T11:54:06.348Z,55.80
2023-03-02T11:58:29.318Z,56.20
2023-03-02T12:03:16.328Z,56.90
2023-03-02T12:07:33.640Z,56.30
2023-03-02T12:12:15.059Z,53.80
2023-03-02T12:16:40.236Z,55.20
2023-03-02T12:21:01.887Z,54.40
2023-03-02T12:25:18.911Z,57.10
2023-03-02T12:30:10.921Z,55.50
2023-03-02T12:34:38.329Z,54.50
2023-03-02T12:39:42.989Z,56.20
2023-03-02T12:44:27.858Z,55.90
2023-03-02T12:48:58.466Z,56.10
2023-03-02T12:53:18.965Z,54.80
2023-03-02T12:57:50.703Z,56.00
2023-03-02T13:02:18.643Z,56.00
2023-03-02T13:06:38.973Z,56.40
2023-03-02T13:11:00.186Z,57.80
2023-03-02T13:15:18.085Z,62.10
2023-03-02T13:19:35.495Z,62.40
2023-03-02T13:23:52.681Z,64.70
2023-03-02T13:28:31.626Z,66.60
2023-03-02T13:32:50.937Z,66.90
2023-03-02T13:37:22.328Z,68.20
2023-03-02T13:41:40.684Z,70.70
2023-03-02T13:46:06.430Z,71.00
2023-03-02T13:50:29.558Z,70.80
2023-03-02T13:54:47.921Z,71.80
2023-03-02T13:59:09.818Z,73.20
2023-03-02T14:03:29.348Z,71.70
2023-03-02T14:07:47.099Z,70.70
2023-03-02T14:12:06.072Z,71.40
2023-03-02T14:16:24.289Z,72.00
2023-03-02T14:20:41.402Z,72.50
2023-03-02T14:24:58.561Z,72.10
2023-03-02T14:29:22.989Z,72.60
2023-03-02T14:33:40.369Z,71.80
2023-03-02T14:37:57.496Z,69.80
2023-03-02T14:42:16.763Z,69.10
2023-03-02T14:46:33.964Z,68.60
2023-03-02T14:50:51.734Z,70.20
2023-03-02T14:55:18.295Z,68.10
2023-03-02T14:59:35.450Z,66.80
2023-03-02T15:03:52.559Z,66.40
2023-03-02T15:08:13.570Z,66.10
2023-03-02T15:12:30.719Z,65.60
2023-03-02T15:16:47.805Z,65.80
2023-03-02T15:21:05.523Z,65.90
2023-03-02T15:25:25.832Z,64.60
2023-03-02T15:29:47.089Z,63.40
2023-03-02T15:34:04.192Z,63.50
2023-03-02T15:38:21.257Z,64.10
2023-03-02T15:42:38.358Z,63.60
2023-03-02T15:46:58.102Z,65.70
2023-03-02T15:51:15.281Z,65.30
2023-03-02T15:55:32.473Z,66.50
2023-03-02T15:59:49.582Z,68.10
2023-03-02T16:04:06.743Z,68.40
2023-03-02T16:08:23.880Z,69.30
2023-03-02T16:12:41.524Z,69.30
2023-03-02T16:16:58.666Z,71.00
2023-03-02T16:21:15.735Z,72.60
2023-03-02T16:25:34.505Z,74.10
2023-03-02T16:29:51.947Z,74.20
2023-03-02T16:34:09.731Z,76.20
2023-03-02T16:38:27.433Z,77.90
2023-03-02T16:42:44.670Z,78.40
2023-03-02T16:47:01.834Z,83.60
2023-03-02T16:51:19.999Z,87.30
2023-03-02T16:55:37.122Z,91.30
2023-03-02T16:59:54.281Z,93.70
2023-03-02T17:04:11.433Z,99.90
2023-03-02T17:08:28.855Z,99.90
2023-03-02T17:12:46.074Z,99.90
2023-03-02T17:17:03.188Z,99.90
2023-03-02T17:21:20.417Z,99.90
2023-03-02T17:25:37.690Z,99.90
2023-03-02T17:29:54.994Z,99.90
2023-03-02T17:34:12.448Z,99.90
2023-03-02T17:38:29.688Z,99.90
2023-03-02T17:42:46.922Z,99.90
2023-03-02T17:47:06.258Z,99.90
2023-03-02T17:51:24.686Z,99.90
2023-03-02T17:55:41.958Z,99.90
2023-03-02T17:59:59.046Z,99.90
2023-03-02T18:04:16.202Z,99.90
2023-03-02T18:08:33.488Z,99.90
2023-03-02T18:12:52.766Z,99.90
2023-03-02T18:17:12.446Z,99.90
2023-03-02T18:21:29.644Z,99.90
2023-03-02T18:25:47.472Z,99.90
2023-03-02T18:30:05.150Z,99.90
2023-03-02T18:34:22.343Z,99.90
2023-03-02T18:38:39.721Z,99.90
2023-03-02T18:42:56.986Z,99.90
2023-03-02T18:47:16.984Z,99.90
2023-03-02T18:51:34.136Z,99.90
2023-03-02T18:55:54.892Z,99.90
2023-03-02T19:00:18.929Z,99.90
2023-03-02T19:04:36.490Z,99.90
2023-03-02T19:08:54.332Z,99.90
2023-03-02T19:13:11.814Z,99.90
2023-03-02T19:17:28.967Z,99.90
2023-03-02T19:21:46.279Z,99.90
2023-03-02T19:26:04.793Z,99.90
2023-03-02T19:30:26.379Z,99.90
2023-03-02T19:34:44.231Z,99.90
2023-03-02T19:39:01.437Z,99.90
2023-03-02T19:43:20.276Z,99.90
2023-03-02T19:47:37.818Z,99.90
2023-03-02T19:51:55.839Z,99.90
2023-03-02T19:56:15.235Z,99.90
2023-03-02T20:00:33.536Z,99.90
2023-03-02T20:04:52.188Z,99.90
2023-03-02T20:09:10.416Z,99.90
2023-03-02T20:13:27.572Z,99.90
2023-03-02T20:17:44.807Z,99.90
2023-03-02T20:22:03.725Z,99.90
2023-03-02T20:26:22.483Z,99.90
2023-03-02T20:30:51.662Z,99.90
2023-03-02T20:35:10.457Z,99.90
2023-03-02T20:39:31.985Z,99.90
2023-03-02T20:43:49.939Z,99.90
2023-03-02T20:48:07.331Z,99.90
2023-03-02T20:52:24.812Z,99.90
2023-03-02T20:56:42.160Z,99.90
2023-03-02T21:01:00.513Z,99.90
2023-03-02T21:05:19.368Z,99.90
2023-03-02T21:09:36.636Z,99.90
2023-03-02T21:13:55.671Z,99.90
2023-03-02T21:18:12.774Z,99.90
2023-03-02T21:22:29.883Z,99.90
2023-03-02T21:26:49.898Z,99.90
2023-03-02T21:31:07.107Z,99.90
2023-03-02T21:35:24.984Z,99.90
2023-03-02T21:39:42.099Z,99.90
2023-03-02T21:43:59.550Z,99.90
2023-03-02T21:48:17.662Z,99.90
2023-03-02T21:52:34.696Z,99.90
2023-03-02T21:56:51.723Z,99.90
2023-03-02T22:01:08.826Z,99.90
2023-03-02T22:05:26.834Z,99.90
2023-03-02T22:09:43.938Z,99.90
2023-03-02T22:14:08.016Z,99.90
2023-03-02T22:18:27.073Z,99.90
2023-03-02T22:22:44.325Z,99.90
2023-03-02T22:27:29.815Z,99.90
2023-03-02T22:31:49.500Z,99.90
2023-03-02T22:36:15.211Z,99.90
2023-03-02T22:40:34.896Z,99.90
2023-03-02T22:45:14.687Z,99.90
2023-03-02T22:49:32.716Z,99.90
2023-03-02T22:53:54.968Z,99.90
2023-03-02T22:58:29.157Z,99.90
2023-03-02T23:02:46.427Z,99.90
2023-03-02T23:07:16.080Z,99.90
2023-03-02T23:11:39.385Z,99.90
2023-03-02T23:15:57.251Z,99.90
2023-03-02T23:20:15.671Z,99.90
2023-03-02T23:24:32.873Z,99.90
2023-03-02T23:28:50.882Z,99.90
2023-03-02T23:33:08.417Z,99.90
2023-03-02T23:37:25.682Z,99.90
2023-03-02T23:41:43.513Z,99.90
2023-03-02T23:46:00.970Z,99.90
2023-03-02T23:50:18.502Z,99.90
2023-03-02T23:54:35.563Z,99.90
2023-03-02T23:58:52.708Z,99.90
